KMLP - Mullan Pass
Updated: Sun, 24-Sep-2017 1:53pm PDT
Overcast
Overcast
 Wind from varies
Wind: varies at 5 mph , 7 km/h
Temperature : 43°F , 6°C
Wind Chill : 40°F , 4°C
Dew Point : 32°F , 0°C
Humidity : 66%
Barometer : 30.12 inHg , 1020 hPa
Clouds : Overcast
Visibility : 10 miles , 16 km
2017/09/24 20:53 KMLP 242053Z AUTO VRB04KT 10SM FEW021 BKN038 OVC047 06/00 A3012 RMK AO2 SLP153 T00610000 58001 TSNO $

 

KCOE - Coeur d Alene
Updated: Sun, 24-Sep-2017 1:56pm PDT
Clear
Clear
 Wind from W
Wind: W at 7 mph , 11 km/h
Temperature : 64°F , 18°C
Dew Point : 39°F , 4°C
Humidity : 40%
Barometer : 30.08 inHg , 1018.6 hPa
Clouds : Clear
Visibility : 10 miles , 16 km
2017/09/24 20:56 KCOE 242056Z AUTO 26006KT 10SM CLR 18/04 A3008 RMK AO2 SLP199 T01830044 56015

 

KLWS - Lewiston
Updated: Sun, 24-Sep-2017 1:56pm PDT
Clear
Clear
 Wind from varies
Wind: varies at 5 mph , 7 km/h
Temperature : 64°F , 18°C
Dew Point : 45°F , 7°C
Humidity : 49%
Barometer : 30.10 inHg , 1019.3 hPa
Clouds : Clear
Visibility : 10 miles , 16 km
2017/09/24 20:56 KLWS 242056Z VRB04KT 10SM CLR 18/07 A3010 RMK AO2 SLP192 T01830067 58017

 

KGEG - Spokane Intl
Updated: Sun, 24-Sep-2017 1:53pm PDT
Partly cloudy
Partly cloudy
 Wind from varies
Wind: varies at 5 mph , 7 km/h
Temperature : 64°F , 18°C
Dew Point : 37°F , 3°C
Humidity : 37%
Barometer : 30.08 inHg , 1018.6 hPa
Clouds : Partly cloudy
Visibility : 10 miles , 16 km
2017/09/24 20:53 KGEG 242053Z VRB04KT 10SM FEW040 SCT080 SCT150 18/03 A3008 RMK AO2 SLP181 T01780033 58011